createdAt,value
2022-12-13T00:00:05.927Z,58.81
2022-12-13T00:01:05.910Z,58.77
2022-12-13T00:02:05.992Z,58.69
2022-12-13T00:03:05.896Z,59.02
2022-12-13T00:04:06.128Z,58.81
2022-12-13T00:05:05.883Z,58.98
2022-12-13T00:06:05.928Z,59.49
2022-12-13T00:07:05.884Z,59.83
2022-12-13T00:08:05.875Z,60.13
2022-12-13T00:09:05.909Z,60.48
2022-12-13T00:10:05.997Z,60.62
2022-12-13T00:11:05.833Z,60.66
2022-12-13T00:12:05.838Z,60.62
2022-12-13T00:13:05.874Z,61.01
2022-12-13T00:14:05.794Z,60.66
2022-12-13T00:15:05.806Z,60.75
2022-12-13T00:16:05.864Z,60.62
2022-12-13T00:17:05.775Z,60.48
2022-12-13T00:18:05.762Z,60.57
2022-12-13T00:19:05.820Z,60.44
2022-12-13T00:20:05.759Z,60.39
2022-12-13T00:21:05.764Z,60.39
2022-12-13T00:22:05.800Z,60.48
2022-12-13T00:23:05.753Z,60.18
2022-12-13T00:24:05.717Z,60.57
2022-12-13T00:25:05.716Z,60.48
2022-12-13T00:26:05.697Z,61.15
2022-12-13T00:27:05.706Z,61.51
2022-12-13T00:28:05.870Z,61.38
2022-12-13T00:29:05.680Z,61.56
2022-12-13T00:30:05.750Z,61.56
2022-12-13T00:31:35.232Z,61.92
2022-12-13T00:32:05.789Z,62.29
2022-12-13T00:33:05.647Z,62.29
2022-12-13T00:34:05.723Z,62.02
2022-12-13T00:35:05.616Z,62.11
2022-12-13T00:36:05.674Z,62.20
2022-12-13T00:37:05.608Z,62.58
2022-12-13T00:38:05.601Z,62.62
2022-12-13T00:39:05.689Z,62.58
2022-12-13T00:40:05.569Z,63.44
2022-12-13T00:41:05.569Z,63.63
2022-12-13T00:42:05.563Z,64.12
2022-12-13T00:43:05.610Z,64.27
2022-12-13T00:44:05.537Z,64.72
2022-12-13T00:45:05.552Z,64.97
2022-12-13T00:46:05.667Z,64.87
2022-12-13T00:47:05.508Z,64.92
2022-12-13T00:48:05.516Z,65.54
2022-12-13T00:49:05.571Z,65.64
2022-12-13T00:50:05.517Z,66.00
2022-12-13T00:51:05.477Z,66.27
2022-12-13T00:52:05.556Z,66.11
2022-12-13T00:53:05.454Z,66.75
2022-12-13T00:54:05.442Z,67.02
2022-12-13T00:55:05.506Z,67.45
2022-12-13T00:56:05.428Z,67.84
2022-12-13T00:57:05.437Z,68.68
2022-12-13T00:58:05.485Z,69.08
2022-12-13T00:59:05.416Z,69.95
2022-12-13T01:00:05.411Z,70.48
2022-12-13T01:01:05.458Z,70.30
2022-12-13T01:02:05.387Z,70.30
2022-12-13T01:03:05.417Z,70.72
2022-12-13T01:04:05.422Z,71.08
2022-12-13T01:05:05.377Z,71.21
2022-12-13T01:06:14.849Z,72.20
2022-12-13T01:07:05.370Z,72.64
2022-12-13T01:08:05.390Z,73.08
2022-12-13T01:09:05.335Z,74.00
2022-12-13T01:10:05.306Z,74.13
2022-12-13T01:11:05.373Z,74.46
2022-12-13T01:12:05.304Z,75.07
2022-12-13T01:13:05.285Z,75.00
2022-12-13T01:14:05.315Z,75.41
2022-12-13T01:15:05.278Z,75.54
2022-12-13T01:16:05.256Z,75.00
2022-12-13T01:17:05.279Z,75.82
2022-12-13T01:18:05.260Z,76.10
2022-12-13T01:19:05.249Z,75.96
2022-12-13T01:20:05.217Z,76.52
2022-12-13T01:21:05.223Z,76.59
2022-12-13T01:22:05.222Z,76.87
2022-12-13T01:23:05.194Z,76.73
2022-12-13T01:24:05.207Z,76.94
2022-12-13T01:25:05.184Z,77.44
2022-12-13T01:26:05.162Z,77.88
2022-12-13T01:27:05.182Z,77.81
2022-12-13T01:28:05.155Z,77.88
2022-12-13T01:29:05.138Z,77.66
2022-12-13T01:30:05.148Z,77.66
2022-12-13T01:31:05.318Z,77.08
2022-12-13T01:32:05.141Z,76.87
2022-12-13T01:33:14.309Z,76.73
2022-12-13T01:34:05.103Z,76.94
2022-12-13T01:35:05.096Z,77.37
2022-12-13T01:36:05.149Z,77.88
2022-12-13T01:37:05.092Z,77.37
2022-12-13T01:38:15.388Z,77.66
2022-12-13T01:39:14.366Z,77.37
2022-12-13T01:40:15.838Z,77.51
2022-12-13T01:41:16.667Z,77.37
2022-12-13T01:42:05.099Z,76.66
2022-12-13T01:43:14.769Z,76.59
2022-12-13T01:44:05.020Z,76.38
2022-12-13T01:45:05.099Z,76.31
2022-12-13T01:46:05.031Z,76.24
2022-12-13T01:47:04.997Z,76.59
2022-12-13T01:48:05.028Z,75.75
2022-12-13T01:49:04.972Z,76.66
2022-12-13T01:50:04.987Z,75.75
2022-12-13T01:51:04.966Z,75.61
2022-12-13T01:52:05.016Z,75.54
2022-12-13T01:53:04.940Z,75.54
2022-12-13T01:54:04.935Z,76.52
2022-12-13T01:55:05.157Z,76.03
2022-12-13T01:56:04.919Z,76.24
2022-12-13T01:57:04.906Z,75.54
2022-12-13T01:58:04.965Z,76.38
2022-12-13T01:59:04.884Z,76.10
2022-12-13T02:00:04.881Z,76.31
2022-12-13T02:01:05.071Z,76.38
2022-12-13T02:02:04.856Z,76.94
2022-12-13T02:03:04.854Z,77.37
2022-12-13T02:04:04.893Z,77.73
2022-12-13T02:05:04.866Z,77.73
2022-12-13T02:06:04.849Z,77.30
2022-12-13T02:07:04.877Z,76.73
2022-12-13T02:08:04.854Z,76.17
2022-12-13T02:09:04.810Z,75.34
2022-12-13T02:10:04.840Z,74.66
2022-12-13T02:11:04.799Z,74.06
2022-12-13T02:12:04.766Z,73.86
2022-12-13T02:13:04.795Z,73.54
2022-12-13T02:14:04.748Z,73.41
2022-12-13T02:15:04.746Z,73.67
2022-12-13T02:16:04.805Z,73.08
2022-12-13T02:17:04.730Z,73.28
2022-12-13T02:18:04.718Z,73.15
2022-12-13T02:19:04.724Z,73.02
2022-12-13T02:20:04.707Z,73.41
2022-12-13T02:21:04.692Z,73.28
2022-12-13T02:22:04.703Z,73.54
2022-12-13T02:23:04.801Z,73.15
2022-12-13T02:24:08.802Z,73.28
2022-12-13T02:25:04.657Z,73.67
2022-12-13T02:26:04.654Z,73.54
2022-12-13T02:27:04.696Z,72.96
2022-12-13T02:28:04.639Z,72.51
2022-12-13T02:29:04.692Z,72.13
2022-12-13T02:30:04.635Z,72.20
2022-12-13T02:31:04.682Z,72.13
2022-12-13T02:32:04.671Z,71.89
2022-12-13T02:33:04.585Z,72.39
2022-12-13T02:34:04.587Z,72.13
2022-12-13T02:35:04.637Z,72.39
2022-12-13T02:36:04.565Z,72.64
2022-12-13T02:37:04.578Z,72.51
2022-12-13T02:38:04.610Z,72.39
2022-12-13T02:39:04.549Z,72.32
2022-12-13T02:40:04.530Z,72.51
2022-12-13T02:41:04.583Z,72.26
2022-12-13T02:42:04.511Z,72.64
2022-12-13T02:43:04.500Z,72.89
2022-12-13T02:44:04.553Z,72.51
2022-12-13T02:45:04.493Z,72.51
2022-12-13T02:46:04.541Z,72.57
2022-12-13T02:47:04.625Z,72.83
2022-12-13T02:48:04.452Z,73.02
2022-12-13T02:49:04.452Z,73.41
2022-12-13T02:50:04.495Z,73.73
2022-12-13T02:51:04.433Z,73.34
2022-12-13T02:52:04.427Z,73.60
2022-12-13T02:53:04.481Z,73.28
2022-12-13T02:54:04.423Z,73.47
2022-12-13T02:55:04.397Z,73.47
2022-12-13T02:56:04.449Z,73.80
2022-12-13T02:57:04.391Z,73.60
2022-12-13T02:58:04.399Z,73.47
2022-12-13T02:59:04.409Z,73.86
2022-12-13T03:00:04.378Z,74.59
2022-12-13T03:01:04.340Z,74.86
2022-12-13T03:02:10.432Z,76.24
2022-12-13T03:03:04.546Z,76.38
2022-12-13T03:04:04.350Z,76.94
2022-12-13T03:05:04.417Z,77.81
2022-12-13T03:06:04.312Z,78.47
2022-12-13T03:07:04.297Z,78.69
2022-12-13T03:08:04.376Z,80.05
2022-12-13T03:09:04.292Z,80.52
2022-12-13T03:10:04.270Z,81.15
2022-12-13T03:11:04.327Z,81.95
2022-12-13T03:12:04.249Z,82.68
2022-12-13T03:13:04.245Z,83.35
2022-12-13T03:14:04.274Z,83.85
2022-12-13T03:15:04.226Z,84.36
2022-12-13T03:16:04.257Z,84.02
2022-12-13T03:17:04.273Z,84.27
2022-12-13T03:18:04.192Z,84.10
2022-12-13T03:19:04.196Z,84.36
2022-12-13T03:20:04.173Z,84.36
2022-12-13T03:21:04.235Z,84.02
2022-12-13T03:22:04.177Z,83.93
2022-12-13T03:23:04.161Z,84.27
2022-12-13T03:24:04.259Z,84.27
2022-12-13T03:25:04.174Z,84.10
2022-12-13T03:26:04.135Z,84.36
2022-12-13T03:27:04.217Z,84.19
2022-12-13T03:28:04.119Z,83.51
2022-12-13T03:29:04.099Z,83.43
2022-12-13T03:30:04.096Z,83.26
2022-12-13T03:31:04.121Z,83.10
2022-12-13T03:32:04.091Z,82.68
2022-12-13T03:33:04.080Z,82.68
2022-12-13T03:34:04.056Z,82.35
2022-12-13T03:35:04.056Z,82.93
2022-12-13T03:36:04.061Z,83.43
2022-12-13T03:37:04.058Z,83.68
2022-12-13T03:38:04.038Z,83.68
2022-12-13T03:39:04.015Z,83.60
2022-12-13T03:40:04.026Z,83.26
2022-12-13T03:41:04.144Z,82.76
2022-12-13T03:42:03.994Z,82.68
2022-12-13T03:43:03.982Z,83.10
2022-12-13T03:44:03.991Z,83.18
2022-12-13T03:45:03.994Z,83.43
2022-12-13T03:46:04.076Z,84.44
2022-12-13T03:47:03.980Z,84.36
2022-12-13T03:48:03.963Z,85.14
2022-12-13T03:49:03.922Z,85.66
2022-12-13T03:50:07.534Z,85.57
2022-12-13T03:51:04.449Z,86.65
2022-12-13T03:52:03.915Z,86.65
2022-12-13T03:53:03.897Z,87.19
2022-12-13T03:54:03.925Z,87.28
2022-12-13T03:55:03.920Z,87.47
2022-12-13T03:56:03.890Z,87.65
2022-12-13T03:57:03.859Z,88.21
2022-12-13T03:58:07.838Z,88.21
2022-12-13T03:59:03.848Z,87.84
2022-12-13T04:00:03.836Z,87.01
2022-12-13T04:01:03.837Z,86.74
2022-12-13T04:02:03.907Z,87.10
2022-12-13T04:03:03.872Z,86.56
2022-12-13T04:04:03.797Z,87.01
2022-12-13T04:05:03.787Z,87.37
2022-12-13T04:06:03.816Z,88.21
2022-12-13T04:07:03.770Z,88.30
2022-12-13T04:08:03.846Z,89.93
2022-12-13T04:09:03.769Z,89.73
2022-12-13T04:10:03.749Z,90.12
2022-12-13T04:11:03.740Z,89.93
2022-12-13T04:12:03.751Z,90.32
2022-12-13T04:13:03.786Z,90.22
2022-12-13T04:14:03.712Z,90.61
2022-12-13T04:15:03.698Z,91.92
2022-12-13T04:16:03.782Z,92.43
2022-12-13T04:17:03.699Z,92.22
2022-12-13T04:18:03.692Z,92.43
2022-12-13T04:19:03.672Z,92.94
2022-12-13T04:20:03.703Z,93.68
2022-12-13T04:21:03.672Z,93.57
2022-12-13T04:22:03.645Z,93.89
2022-12-13T04:23:10.202Z,95.07
2022-12-13T04:24:03.641Z,94.42
2022-12-13T04:25:03.621Z,94.53
2022-12-13T04:26:03.619Z,94.53
2022-12-13T04:27:03.601Z,94.96
2022-12-13T04:28:03.597Z,94.85
2022-12-13T04:29:03.587Z,94.64
2022-12-13T04:30:03.597Z,95.29
2022-12-13T04:31:03.636Z,95.18
2022-12-13T04:32:03.558Z,95.84
2022-12-13T04:33:03.568Z,95.18
2022-12-13T04:34:03.548Z,95.29
2022-12-13T04:35:03.553Z,94.10
2022-12-13T04:36:03.544Z,94.10
2022-12-13T04:37:03.523Z,93.57
2022-12-13T04:38:03.509Z,94.31
2022-12-13T04:39:03.520Z,94.31
2022-12-13T04:40:03.515Z,93.78
2022-12-13T04:41:03.477Z,94.42
2022-12-13T04:42:03.478Z,93.99
2022-12-13T04:43:03.460Z,93.78
2022-12-13T04:44:03.454Z,94.74
2022-12-13T04:45:03.462Z,94.21
2022-12-13T04:46:03.567Z,94.64
2022-12-13T04:47:03.424Z,94.64
2022-12-13T04:48:03.416Z,94.74
2022-12-13T04:49:03.429Z,95.95
2022-12-13T04:50:03.429Z,94.89
2022-12-13T04:51:03.392Z,96.15
2022-12-13T04:52:03.417Z,97.62
2022-12-13T04:53:03.407Z,98.49
2022-12-13T04:54:24.136Z,98.84
2022-12-13T04:55:03.379Z,99.19
2022-12-13T04:56:03.359Z,99.37
2022-12-13T04:57:03.354Z,99.91
2022-12-13T04:58:03.336Z,99.97
2022-12-13T04:59:03.343Z,99.55
2022-12-13T05:00:03.335Z,99.08
2022-12-13T05:01:03.367Z,99.79
2022-12-13T05:02:03.369Z,99.19
2022-12-13T05:03:03.284Z,99.67
2022-12-13T05:04:03.294Z,100.57
2022-12-13T05:05:03.283Z,100.70
2022-12-13T05:06:03.281Z,99.97
2022-12-13T05:07:03.260Z,100.57
2022-12-13T05:08:03.292Z,102.18
2022-12-13T05:09:03.264Z,101.74
2022-12-13T05:10:03.239Z,102.18
2022-12-13T05:11:03.277Z,100.70
2022-12-13T05:12:02.363Z,99.79
2022-12-13T05:13:03.203Z,99.14
2022-12-13T05:14:03.196Z,98.55
2022-12-13T05:15:03.208Z,98.37
2022-12-13T05:16:03.180Z,99.25
2022-12-13T05:17:03.230Z,99.49
2022-12-13T05:18:09.746Z,99.97
2022-12-13T05:19:03.152Z,99.49
2022-12-13T05:20:03.138Z,100.33
2022-12-13T05:21:03.129Z,99.14
2022-12-13T05:22:03.223Z,98.26
2022-12-13T05:23:03.138Z,98.14
2022-12-13T05:24:03.122Z,96.77
2022-12-13T05:25:03.110Z,95.60
2022-12-13T05:26:03.095Z,95.05
2022-12-13T05:27:23.681Z,94.78
2022-12-13T05:28:09.086Z,95.05
2022-12-13T05:29:03.076Z,95.27
2022-12-13T05:30:05.007Z,95.11
2022-12-13T05:31:03.055Z,94.14
2022-12-13T05:32:03.087Z,95.62
2022-12-13T05:33:03.027Z,95.29
2022-12-13T05:34:03.084Z,94.53
2022-12-13T05:35:03.019Z,94.74
2022-12-13T05:36:03.022Z,93.99
2022-12-13T05:37:03.002Z,94.10
2022-12-13T05:38:02.991Z,93.89
2022-12-13T05:39:02.973Z,92.84
2022-12-13T05:40:02.982Z,92.12
2022-12-13T05:41:02.989Z,92.32
2022-12-13T05:42:03.000Z,92.32
2022-12-13T05:43:02.953Z,92.12
2022-12-13T05:44:02.936Z,91.61
2022-12-13T05:45:02.935Z,91.51
2022-12-13T05:46:02.995Z,91.51
2022-12-13T05:47:03.146Z,91.71
2022-12-13T05:48:02.903Z,91.51
2022-12-13T05:49:02.902Z,90.61
2022-12-13T05:50:02.918Z,90.81
2022-12-13T05:51:11.117Z,91.31
2022-12-13T05:52:02.879Z,91.11
2022-12-13T05:53:02.870Z,91.51
2022-12-13T05:54:02.882Z,90.71
2022-12-13T05:55:02.852Z,90.32
2022-12-13T05:56:02.832Z,90.32
2022-12-13T05:57:02.830Z,90.12
2022-12-13T05:58:02.854Z,90.02
2022-12-13T05:59:02.811Z,90.12
2022-12-13T06:00:02.806Z,90.61
2022-12-13T06:01:02.785Z,90.51
2022-12-13T06:02:02.865Z,91.41
2022-12-13T06:03:02.942Z,92.43
2022-12-13T06:04:02.758Z,92.84
2022-12-13T06:05:02.774Z,92.94
2022-12-13T06:06:02.789Z,93.57
2022-12-13T06:07:02.732Z,93.36
2022-12-13T06:08:02.804Z,93.57
2022-12-13T06:09:02.797Z,94.21
2022-12-13T06:10:10.060Z,94.96
2022-12-13T06:11:09.950Z,95.95
2022-12-13T06:12:02.757Z,94.41
2022-12-13T06:13:21.098Z,94.57
2022-12-13T06:14:02.680Z,95.38
2022-12-13T06:15:02.670Z,94.94
2022-12-13T06:16:02.672Z,95.65
2022-12-13T06:17:02.719Z,95.99
2022-12-13T06:18:02.664Z,97.17
2022-12-13T06:19:04.668Z,97.05
2022-12-13T06:20:02.633Z,96.43
2022-12-13T06:21:02.626Z,95.88
2022-12-13T06:22:02.612Z,95.49
2022-12-13T06:23:02.615Z,95.93
2022-12-13T06:24:02.575Z,95.99
2022-12-13T06:25:03.326Z,96.94
2022-12-13T06:26:02.522Z,96.82
2022-12-13T06:27:02.556Z,97.68
2022-12-13T06:28:02.541Z,98.20
2022-12-13T06:29:02.505Z,97.39
2022-12-13T06:30:03.009Z,97.97
2022-12-13T06:31:02.633Z,97.05
2022-12-13T06:32:03.483Z,97.17
2022-12-13T06:33:02.467Z,96.71
2022-12-13T06:34:14.769Z,96.49
2022-12-13T06:35:08.944Z,96.04
2022-12-13T06:36:02.472Z,96.21
2022-12-13T06:37:02.439Z,95.99
2022-12-13T06:38:02.451Z,96.38
2022-12-13T06:39:02.419Z,96.82
2022-12-13T06:40:02.412Z,97.22
2022-12-13T06:41:02.381Z,97.97
2022-12-13T06:42:02.411Z,97.91
2022-12-13T06:43:02.363Z,97.79
2022-12-13T06:44:02.365Z,97.97
2022-12-13T06:45:02.364Z,97.85
2022-12-13T06:46:02.376Z,97.05
2022-12-13T06:47:12.028Z,96.82
2022-12-13T06:48:02.326Z,96.26
2022-12-13T06:49:02.322Z,95.54
2022-12-13T06:50:05.139Z,95.60
2022-12-13T06:51:02.314Z,96.32
2022-12-13T06:52:02.296Z,96.32
2022-12-13T06:53:02.297Z,96.88
2022-12-13T06:54:02.270Z,96.38
2022-12-13T06:55:02.295Z,97.17
2022-12-13T06:56:02.257Z,96.71
2022-12-13T06:57:02.249Z,96.38
2022-12-13T06:58:02.243Z,97.17
2022-12-13T06:59:02.499Z,97.39
2022-12-13T07:00:02.243Z,99.14
2022-12-13T07:01:02.242Z,99.91
2022-12-13T07:02:03.729Z,99.08
2022-12-13T07:03:02.266Z,99.43
2022-12-13T07:04:02.211Z,99.25
2022-12-13T07:05:02.205Z,99.85
2022-12-13T07:06:02.177Z,98.72
2022-12-13T07:07:02.442Z,100.33
2022-12-13T07:08:02.232Z,99.73
2022-12-13T07:09:02.147Z,99.55
2022-12-13T07:10:02.156Z,99.55
2022-12-13T07:11:02.128Z,98.90
2022-12-13T07:12:02.137Z,100.09
2022-12-13T07:13:02.107Z,99.79
2022-12-13T07:14:02.115Z,99.49
2022-12-13T07:15:02.096Z,99.19
2022-12-13T07:16:02.159Z,100.33
2022-12-13T07:17:03.803Z,100.94
2022-12-13T07:18:02.164Z,101.31
2022-12-13T07:19:02.076Z,100.33
2022-12-13T07:20:02.080Z,99.31
2022-12-13T07:21:02.036Z,99.37
2022-12-13T07:22:02.088Z,98.43
2022-12-13T07:23:02.041Z,99.31
2022-12-13T07:24:02.015Z,99.85
2022-12-13T07:25:01.999Z,99.02
2022-12-13T07:26:01.998Z,100.27
2022-12-13T07:27:01.980Z,101.81
2022-12-13T07:28:03.023Z,102.43
2022-12-13T07:29:01.987Z,103.07
2022-12-13T07:30:01.968Z,104.10
2022-12-13T07:31:02.018Z,104.62
2022-12-13T07:32:02.289Z,104.96
2022-12-13T07:33:01.928Z,104.89
2022-12-13T07:34:01.963Z,104.49
2022-12-13T07:35:01.924Z,104.96
2022-12-13T07:36:01.913Z,106.16
2022-12-13T07:37:01.950Z,107.61
2022-12-13T07:38:01.906Z,107.74
2022-12-13T07:39:01.883Z,109.09
2022-12-13T07:40:04.219Z,110.46
2022-12-13T07:41:01.953Z,112.71
2022-12-13T07:42:01.854Z,113.25
2022-12-13T07:43:01.883Z,112.41
2022-12-13T07:44:01.831Z,110.10
2022-12-13T07:45:01.835Z,109.81
2022-12-13T07:46:01.880Z,110.46
2022-12-13T07:47:02.047Z,112.71
2022-12-13T07:48:01.897Z,113.95
2022-12-13T07:49:02.075Z,114.97
2022-12-13T07:50:01.945Z,116.34
2022-12-13T07:51:01.771Z,118.24
2022-12-13T07:52:01.766Z,119.00
2022-12-13T07:53:01.794Z,120.47
2022-12-13T07:54:06.847Z,120.21
2022-12-13T07:55:01.768Z,121.17
2022-12-13T07:56:01.761Z,122.24
2022-12-13T07:57:04.575Z,122.69
2022-12-13T07:58:01.720Z,122.15
2022-12-13T07:59:01.713Z,121.97
2022-12-13T08:00:01.691Z,122.51
2022-12-13T08:01:01.702Z,124.72
2022-12-13T08:02:02.102Z,125.00
2022-12-13T08:03:01.686Z,125.66
2022-12-13T08:04:01.711Z,127.00
2022-12-13T08:05:25.476Z,128.28
2022-12-13T08:06:01.703Z,129.68
2022-12-13T08:07:01.646Z,130.49
2022-12-13T08:08:01.687Z,131.53
2022-12-13T08:09:01.630Z,132.26
2022-12-13T08:10:01.596Z,132.68
2022-12-13T08:11:01.619Z,133.11
2022-12-13T08:12:01.611Z,133.53
2022-12-13T08:13:01.571Z,134.51
2022-12-13T08:14:01.582Z,136.16
2022-12-13T08:15:01.589Z,138.08
2022-12-13T08:16:01.590Z,137.51
2022-12-13T08:17:01.544Z,138.54
2022-12-13T08:18:01.547Z,139.47
2022-12-13T08:19:04.364Z,140.06
2022-12-13T08:20:01.514Z,141.37
2022-12-13T08:21:01.578Z,143.07
2022-12-13T08:22:02.285Z,145.07
2022-12-13T08:23:02.219Z,145.07
2022-12-13T08:24:01.481Z,146.22
2022-12-13T08:25:01.548Z,147.78
2022-12-13T08:26:01.467Z,148.57
2022-12-13T08:27:01.835Z,148.30
2022-12-13T08:28:02.460Z,149.51
2022-12-13T08:29:01.438Z,148.97
2022-12-13T08:30:01.449Z,150.45
2022-12-13T08:31:01.499Z,153.51
2022-12-13T08:32:01.595Z,154.65
2022-12-13T08:33:04.837Z,156.84
2022-12-13T08:34:01.394Z,156.54
2022-12-13T08:35:01.382Z,156.69
2022-12-13T08:36:01.387Z,158.18
2022-12-13T08:37:03.537Z,161.25
2022-12-13T08:38:01.401Z,162.67
2022-12-13T08:39:01.363Z,164.28
2022-12-13T08:40:01.345Z,165.75
2022-12-13T08:41:01.332Z,166.92
2022-12-13T08:42:15.735Z,167.93
2022-12-13T08:43:01.336Z,166.92
2022-12-13T08:44:01.357Z,168.10
2022-12-13T08:45:01.310Z,168.61
2022-12-13T08:46:01.523Z,170.34
2022-12-13T08:47:01.319Z,171.57
2022-12-13T08:48:01.310Z,172.28
2022-12-13T08:49:01.320Z,173.90
2022-12-13T08:50:02.668Z,172.82
2022-12-13T08:51:01.235Z,174.08
2022-12-13T08:52:01.230Z,178.00
2022-12-13T08:53:01.235Z,180.12
2022-12-13T08:54:11.235Z,181.49
2022-12-13T08:55:01.210Z,181.69
2022-12-13T08:56:01.189Z,184.72
2022-12-13T08:57:01.190Z,185.76
2022-12-13T08:58:01.462Z,186.19
2022-12-13T08:59:01.224Z,185.97
2022-12-13T09:00:01.158Z,186.93
2022-12-13T09:01:01.209Z,185.76
2022-12-13T09:02:05.035Z,187.57
2022-12-13T09:03:01.145Z,191.31
2022-12-13T09:04:01.116Z,193.23
2022-12-13T09:05:01.116Z,197.91
2022-12-13T09:06:01.099Z,199.60
2022-12-13T09:07:01.834Z,203.07
2022-12-13T09:08:01.147Z,206.67
2022-12-13T09:09:03.459Z,212.44
2022-12-13T09:10:25.311Z,209.72
2022-12-13T09:11:01.100Z,207.85
2022-12-13T09:12:01.091Z,209.31
2022-12-13T09:13:02.382Z,215.24
2022-12-13T09:14:01.246Z,217.53
2022-12-13T09:15:02.007Z,223.79
2022-12-13T09:16:01.490Z,226.89
2022-12-13T09:17:02.951Z,238.65
2022-12-13T09:18:04.157Z,250.16
2022-12-13T09:19:00.988Z,253.07
2022-12-13T09:20:01.020Z,259.49
2022-12-13T09:21:10.316Z,262.83
2022-12-13T09:22:02.478Z,264.32
2022-12-13T09:23:01.361Z,262.83
2022-12-13T09:24:01.465Z,261.99
2022-12-13T09:25:02.571Z,269.11
2022-12-13T09:26:05.524Z,275.92
2022-12-13T09:27:00.916Z,285.32
2022-12-13T09:28:00.917Z,292.20
2022-12-13T09:29:10.807Z,293.51
2022-12-13T09:30:00.889Z,300.81
2022-12-13T09:31:00.891Z,309.64
2022-12-13T09:32:00.886Z,314.40
2022-12-13T09:33:18.329Z,315.01
2022-12-13T09:34:00.857Z,313.20
2022-12-13T09:35:00.844Z,309.93
2022-12-13T09:36:01.255Z,306.45
2022-12-13T09:37:01.478Z,305.02
2022-12-13T09:38:00.809Z,310.23
2022-12-13T09:39:00.819Z,317.77
2022-12-13T09:40:16.291Z,325.03
2022-12-13T09:41:00.794Z,330.62
2022-12-13T09:42:01.889Z,335.37
2022-12-13T09:43:12.538Z,343.12
2022-12-13T09:44:01.035Z,345.29
2022-12-13T09:45:03.195Z,337.80
2022-12-13T09:46:01.020Z,333.32
2022-12-13T09:47:01.096Z,325.36
2022-12-13T09:48:01.184Z,330.96
2022-12-13T09:49:01.447Z,331.29
2022-12-13T09:50:04.009Z,330.96
2022-12-13T09:51:18.424Z,328.96
2022-12-13T09:52:10.791Z,326.33
2022-12-13T09:53:00.678Z,328.30
2022-12-13T09:54:00.667Z,334.68
2022-12-13T09:55:00.652Z,343.12
2022-12-13T09:56:10.991Z,346.02
2022-12-13T09:57:00.656Z,347.12
2022-12-13T09:58:00.625Z,350.10
2022-12-13T09:59:00.620Z,351.98
2022-12-13T10:00:01.358Z,366.18
2022-12-13T10:01:00.649Z,378.03
2022-12-13T10:02:00.654Z,388.73
2022-12-13T10:03:00.598Z,396.38
2022-12-13T10:04:00.580Z,402.63
2022-12-13T10:05:01.278Z,406.82
2022-12-13T10:06:00.545Z,404.59
2022-12-13T10:07:00.562Z,397.57
2022-12-13T10:08:00.529Z,398.04
2022-12-13T10:09:00.529Z,401.41
2022-12-13T10:10:00.517Z,413.14
2022-12-13T10:11:00.506Z,418.08
2022-12-13T10:12:00.495Z,415.73
2022-12-13T10:13:00.514Z,420.73
2022-12-13T10:14:01.306Z,431.95
2022-12-13T10:15:00.470Z,439.08
2022-12-13T10:16:00.510Z,444.07
2022-12-13T10:17:00.546Z,446.46
2022-12-13T10:18:00.439Z,457.22
2022-12-13T10:19:00.431Z,463.92
2022-12-13T10:20:00.432Z,477.60
2022-12-13T10:21:00.416Z,481.75
2022-12-13T10:22:02.045Z,480.01
2022-12-13T10:23:52.547Z,485.98
2022-12-13T10:24:59.376Z,490.28
2022-12-13T10:26:03.869Z,489.92
2022-12-13T10:27:00.354Z,489.56
2022-12-13T10:28:00.355Z,489.56
2022-12-13T10:29:00.357Z,488.48
2022-12-13T10:30:00.342Z,482.45
2022-12-13T10:31:00.322Z,477.94
2022-12-13T10:32:00.346Z,475.54
2022-12-13T10:33:00.318Z,472.16
2022-12-13T10:34:00.288Z,463.60
2022-12-13T10:35:00.308Z,450.40
2022-12-13T10:36:00.271Z,446.76
2022-12-13T10:37:00.267Z,439.67
2022-12-13T10:38:00.263Z,442.89
2022-12-13T10:39:00.241Z,446.46
2022-12-13T10:40:00.244Z,453.16
2022-12-13T10:41:01.182Z,452.54
2022-12-13T10:42:00.276Z,442.60
2022-12-13T10:43:00.218Z,439.38
2022-12-13T10:44:00.205Z,444.37
2022-12-13T10:45:00.203Z,440.25
2022-12-13T10:46:00.323Z,430.55
2022-12-13T10:47:00.273Z,402.87
2022-12-13T10:48:04.023Z,403.12
2022-12-13T10:49:00.171Z,407.82
2022-12-13T10:50:00.152Z,404.59
2022-12-13T10:51:00.206Z,404.34
2022-12-13T10:52:00.147Z,415.99
2022-12-13T10:53:00.132Z,410.84
2022-12-13T10:54:00.130Z,408.32
2022-12-13T10:55:01.469Z,410.59
2022-12-13T10:56:02.222Z,423.68
2022-12-13T10:57:00.177Z,429.16
2022-12-13T10:58:00.090Z,439.08
2022-12-13T10:59:00.071Z,455.65
2022-12-13T11:00:00.042Z,465.87
2022-12-13T11:01:00.070Z,469.83
2022-12-13T11:02:00.161Z,470.49
2022-12-13T11:03:00.024Z,469.83
2022-12-13T11:04:02.341Z,468.83
2022-12-13T11:05:00.009Z,464.24
2022-12-13T11:05:59.993Z,457.22
2022-12-13T11:06:59.988Z,460.07
2022-12-13T11:08:00.854Z,467.84
2022-12-13T11:09:01.494Z,482.80
2022-12-13T11:10:04.987Z,489.92
2022-12-13T11:10:59.965Z,493.20
2022-12-13T11:11:59.934Z,490.28
2022-12-13T11:12:59.926Z,482.80
2022-12-13T11:13:59.908Z,496.89
2022-12-13T11:14:59.900Z,496.51
2022-12-13T11:15:59.906Z,492.10
2022-12-13T11:16:59.956Z,495.40
2022-12-13T11:17:59.910Z,513.79
2022-12-13T11:18:59.903Z,522.28
2022-12-13T11:19:59.849Z,532.75
2022-12-13T11:20:59.856Z,531.89
2022-12-13T11:21:59.849Z,552.23
2022-12-13T11:22:59.822Z,583.26
2022-12-13T11:24:01.770Z,568.78
2022-12-13T11:24:59.808Z,572.21
2022-12-13T11:25:59.786Z,559.68
2022-12-13T11:26:59.826Z,553.15
2022-12-13T11:27:59.794Z,555.00
2022-12-13T11:28:59.758Z,554.54
2022-12-13T11:29:59.754Z,544.98
2022-12-13T11:31:01.497Z,521.46
2022-12-13T11:31:59.829Z,512.21
2022-12-13T11:32:59.737Z,512.21
2022-12-13T11:33:59.729Z,518.61
2022-12-13T11:34:59.731Z,509.07
2022-12-13T11:35:59.700Z,492.46
2022-12-13T11:36:59.700Z,492.46
2022-12-13T11:37:59.701Z,517.80
2022-12-13T11:38:59.684Z,526.83
2022-12-13T11:40:01.363Z,526.41
2022-12-13T11:40:59.671Z,525.17
2022-12-13T11:41:59.677Z,522.69
2022-12-13T11:42:59.626Z,525.17
2022-12-13T11:43:59.629Z,534.46
2022-12-13T11:44:59.613Z,538.80
2022-12-13T11:45:59.698Z,531.89
2022-12-13T11:46:59.597Z,522.28
2022-12-13T11:47:59.580Z,532.75
2022-12-13T11:48:59.587Z,557.33
2022-12-13T11:49:59.565Z,588.43
2022-12-13T11:50:59.572Z,585.83
2022-12-13T11:51:59.551Z,597.96
2022-12-13T11:52:59.540Z,615.12
2022-12-13T11:53:59.556Z,626.73
2022-12-13T11:54:59.561Z,619.14
2022-12-13T11:55:59.512Z,608.36
2022-12-13T11:57:00.121Z,603.39
2022-12-13T11:57:59.486Z,612.29
2022-12-13T11:59:05.719Z,605.59
2022-12-13T12:00:02.440Z,596.89
2022-12-13T12:00:59.478Z,576.68
2022-12-13T12:02:05.300Z,588.95
2022-12-13T12:02:59.494Z,578.69
2022-12-13T12:03:59.464Z,564.43
2022-12-13T12:05:01.048Z,561.09
2022-12-13T12:05:59.404Z,566.36
2022-12-13T12:07:12.178Z,565.39
2022-12-13T12:08:32.158Z,572.21
2022-12-13T12:08:59.401Z,581.73
2022-12-13T12:09:59.394Z,578.69
2022-12-13T12:10:59.366Z,576.18
2022-12-13T12:11:59.346Z,580.21
2022-12-13T12:12:59.343Z,586.87
2022-12-13T12:13:59.326Z,610.04
2022-12-13T12:15:05.732Z,621.46
2022-12-13T12:15:59.463Z,615.70
2022-12-13T12:16:59.301Z,624.38
2022-12-13T12:17:59.313Z,652.59
2022-12-13T12:19:01.721Z,658.41
2022-12-13T12:19:59.314Z,655.16
2022-12-13T12:20:59.255Z,663.67
2022-12-13T12:22:15.545Z,669.02
2022-12-13T12:22:59.259Z,663.01
2022-12-13T12:23:59.258Z,653.87
2022-12-13T12:24:59.220Z,657.76
2022-12-13T12:25:59.235Z,677.20
2022-12-13T12:26:59.214Z,682.07
2022-12-13T12:27:59.189Z,719.76
2022-12-13T12:29:01.347Z,704.49
2022-12-13T12:29:59.198Z,726.84
2022-12-13T12:30:59.180Z,745.61
2022-12-13T12:31:59.162Z,748.03
2022-12-13T12:32:59.188Z,737.33
2022-12-13T12:33:59.133Z,732.45
2022-12-13T12:34:59.137Z,742.27
2022-12-13T12:35:59.135Z,756.97
2022-12-13T12:36:59.114Z,771.46
2022-12-13T12:37:59.118Z,778.69
2022-12-13T12:38:59.092Z,788.85
2022-12-13T12:39:59.101Z,807.04
2022-12-13T12:42:00.135Z,863.64
2022-12-13T12:43:15.370Z,859.17
2022-12-13T12:43:59.044Z,842.84